BWA401 TNCC-TTPP
Flight info
| Callsign | BWA401 |
|---|---|
| Flight time | N/A |
| Altitude | 39000 |
| Route | BONAX1K BONAX DCT ANELU DCT LEXOR DCT TALUS |
| Aircraft | B38M/M-SDE1FGHILORVWXY/HB1 |
Departure
| Time | 2026-04-24 22:45 |
|---|---|
| Airport | Hato International Airport (TNCC) |
Arrival
| Time | N/A |
|---|---|
| Airport | Piarco International Airport (TTPP) |
| Time | Latitude | Longitude | Altitude | Speed | Heading |
|---|---|---|---|---|---|
| 2026-04-24 22:12 | 12.18562 | -68.95729 | 54 ft | 0 kts | 191° |
| 2026-04-24 22:36 | 12.18584 | -68.95725 | 53 ft | 2 kts | 191° |
| 2026-04-24 22:36 | 12.18597 | -68.95721 | 52 ft | 2 kts | 191° |
| 2026-04-24 22:36 | 12.18612 | -68.95718 | 51 ft | 2 kts | 203° |
| 2026-04-24 22:36 | 12.18624 | -68.95711 | 50 ft | 2 kts | 218° |
| 2026-04-24 22:37 | 12.18634 | -68.95702 | 49 ft | 2 kts | 232° |
| 2026-04-24 22:37 | 12.18641 | -68.95689 | 49 ft | 2 kts | 245° |
| 2026-04-24 22:37 | 12.18646 | -68.95676 | 48 ft | 2 kts | 260° |
| 2026-04-24 22:37 | 12.18647 | -68.95660 | 48 ft | 2 kts | 276° |
| 2026-04-24 22:38 | 12.18646 | -68.95653 | 48 ft | 1 kts | 284° |
| 2026-04-24 22:38 | 12.18645 | -68.95649 | 48 ft | 0 kts | 282° |
| 2026-04-24 22:40 | 12.18645 | -68.95650 | 48 ft | 0 kts | 282° |
| 2026-04-24 22:40 | 12.18652 | -68.95683 | 48 ft | 8 kts | 283° |
| 2026-04-24 22:40 | 12.18668 | -68.95757 | 48 ft | 13 kts | 282° |
| 2026-04-24 22:40 | 12.18688 | -68.95855 | 49 ft | 15 kts | 282° |
| 2026-04-24 22:41 | 12.18709 | -68.95961 | 48 ft | 16 kts | 281° |
| 2026-04-24 22:41 | 12.18733 | -68.96072 | 49 ft | 16 kts | 282° |
| 2026-04-24 22:41 | 12.18757 | -68.96187 | 50 ft | 17 kts | 282° |
| 2026-04-24 22:41 | 12.18774 | -68.96267 | 49 ft | 18 kts | 282° |
| 2026-04-24 22:42 | 12.18810 | -68.96433 | 50 ft | 18 kts | 282° |
| 2026-04-24 22:42 | 12.18837 | -68.96564 | 50 ft | 21 kts | 281° |
| 2026-04-24 22:42 | 12.18870 | -68.96722 | 49 ft | 23 kts | 282° |
| 2026-04-24 22:42 | 12.18904 | -68.96885 | 49 ft | 24 kts | 282° |
| 2026-04-24 22:43 | 12.18942 | -68.97059 | 48 ft | 25 kts | 284° |
| 2026-04-24 22:43 | 12.18979 | -68.97235 | 47 ft | 25 kts | 283° |
| 2026-04-24 22:43 | 12.19014 | -68.97407 | 46 ft | 25 kts | 282° |
| 2026-04-24 22:43 | 12.19046 | -68.97555 | 47 ft | 14 kts | 294° |
| 2026-04-24 22:44 | 12.19127 | -68.97579 | 46 ft | 13 kts | 12° |
| 2026-04-24 22:44 | 12.19212 | -68.97536 | 43 ft | 14 kts | 64° |
| 2026-04-24 22:44 | 12.19202 | -68.97443 | 43 ft | 13 kts | 103° |
| 2026-04-24 22:44 | 12.19153 | -68.97209 | 41 ft | 75 kts | 103° |
| 2026-04-24 22:45 | 12.18986 | -68.96431 | 44 ft | 152 kts | 102° |
| 2026-04-24 22:45 | 12.18731 | -68.95228 | 271 ft | 193 kts | 102° |
| 2026-04-24 22:45 | 12.18466 | -68.94081 | 815 ft | 197 kts | 101° |
| 2026-04-24 22:45 | 12.18254 | -68.92648 | 1446 ft | 199 kts | 95° |
| 2026-04-24 22:46 | 12.18116 | -68.91260 | 2082 ft | 201 kts | 94° |
| 2026-04-24 22:46 | 12.18007 | -68.89888 | 2698 ft | 205 kts | 94° |
| 2026-04-24 22:46 | 12.17894 | -68.88396 | 3293 ft | 222 kts | 94° |
| 2026-04-24 22:46 | 12.17763 | -68.86844 | 3944 ft | 238 kts | 95° |
| 2026-04-24 22:47 | 12.17604 | -68.85112 | 4575 ft | 257 kts | 95° |
| 2026-04-24 22:47 | 12.17422 | -68.83214 | 5176 ft | 277 kts | 95° |
| 2026-04-24 22:47 | 12.17224 | -68.81215 | 5761 ft | 296 kts | 95° |
| 2026-04-24 22:47 | 12.17007 | -68.79063 | 6349 ft | 314 kts | 96° |
| 2026-04-24 22:48 | 12.16774 | -68.76787 | 6933 ft | 327 kts | 96° |
| 2026-04-24 22:48 | 12.16536 | -68.74482 | 7524 ft | 338 kts | 96° |
| 2026-04-24 22:48 | 12.16289 | -68.72106 | 8141 ft | 346 kts | 96° |
| 2026-04-24 22:48 | 12.16063 | -68.69939 | 8694 ft | 349 kts | 96° |
| 2026-04-24 22:49 | 12.15826 | -68.67673 | 9268 ft | 352 kts | 96° |
| 2026-04-24 22:49 | 12.15532 | -68.64874 | 9969 ft | 356 kts | 96° |
| 2026-04-24 22:49 | 12.15274 | -68.62427 | 10577 ft | 359 kts | 96° |
| 2026-04-24 22:49 | 12.15011 | -68.59931 | 11190 ft | 362 kts | 96° |
| 2026-04-24 22:50 | 12.14741 | -68.57382 | 11812 ft | 366 kts | 96° |
| 2026-04-24 22:50 | 12.14469 | -68.54814 | 12432 ft | 369 kts | 96° |
| 2026-04-24 22:50 | 12.14192 | -68.52205 | 13057 ft | 371 kts | 96° |
| 2026-04-24 22:50 | 12.13914 | -68.49593 | 13679 ft | 374 kts | 96° |
| 2026-04-24 22:51 | 12.13636 | -68.46980 | 14295 ft | 377 kts | 96° |
| 2026-04-24 22:51 | 12.13378 | -68.44321 | 14917 ft | 380 kts | 95° |
| 2026-04-24 22:51 | 12.13132 | -68.41598 | 15549 ft | 383 kts | 95° |
| 2026-04-24 22:51 | 12.12890 | -68.38912 | 16166 ft | 386 kts | 95° |
| 2026-04-24 22:52 | 12.12641 | -68.36150 | 16796 ft | 389 kts | 95° |
| 2026-04-24 22:52 | 12.12393 | -68.33403 | 17421 ft | 392 kts | 95° |
| 2026-04-24 22:52 | 12.12140 | -68.30605 | 18054 ft | 396 kts | 95° |
| 2026-04-24 22:52 | 12.11885 | -68.27802 | 18682 ft | 399 kts | 95° |
| 2026-04-24 22:53 | 12.11626 | -68.24954 | 19269 ft | 402 kts | 95° |
| 2026-04-24 22:53 | 12.11371 | -68.22154 | 19838 ft | 405 kts | 95° |
| 2026-04-24 22:53 | 12.11111 | -68.19302 | 20413 ft | 408 kts | 94° |
| 2026-04-24 22:53 | 12.10852 | -68.16468 | 20980 ft | 412 kts | 94° |
| 2026-04-24 22:54 | 12.10592 | -68.13630 | 21543 ft | 415 kts | 94° |
| 2026-04-24 22:54 | 12.10322 | -68.10682 | 22123 ft | 418 kts | 94° |
| 2026-04-24 22:54 | 12.10051 | -68.07727 | 22700 ft | 422 kts | 94° |
| 2026-04-24 22:54 | 12.09778 | -68.04757 | 23274 ft | 425 kts | 94° |
| 2026-04-24 22:55 | 12.09498 | -68.01722 | 23782 ft | 429 kts | 94° |
| 2026-04-24 22:55 | 12.09221 | -67.98711 | 24281 ft | 432 kts | 94° |
| 2026-04-24 22:55 | 12.08940 | -67.95667 | 24782 ft | 435 kts | 94° |
| 2026-04-24 22:55 | 12.08658 | -67.92615 | 25280 ft | 438 kts | 94° |
| 2026-04-24 22:56 | 12.08371 | -67.89510 | 25783 ft | 442 kts | 94° |
| 2026-04-24 22:56 | 12.08080 | -67.86375 | 26287 ft | 445 kts | 94° |
| 2026-04-24 22:56 | 12.07766 | -67.83232 | 26787 ft | 449 kts | 96° |
| 2026-04-24 22:56 | 12.07182 | -67.80128 | 27292 ft | 452 kts | 100° |
| 2026-04-24 22:57 | 12.06482 | -67.77003 | 27793 ft | 455 kts | 101° |
| 2026-04-24 22:57 | 12.05758 | -67.73846 | 28296 ft | 457 kts | 101° |
| 2026-04-24 22:57 | 12.05027 | -67.70670 | 28801 ft | 459 kts | 101° |
| 2026-04-24 22:57 | 12.04303 | -67.67520 | 29300 ft | 460 kts | 101° |
| 2026-04-24 22:58 | 12.03575 | -67.64353 | 29674 ft | 465 kts | 101° |
| 2026-04-24 22:58 | 12.02831 | -67.61110 | 29933 ft | 472 kts | 101° |
| 2026-04-24 22:58 | 12.02083 | -67.57855 | 30185 ft | 476 kts | 101° |
| 2026-04-24 22:58 | 12.01327 | -67.54566 | 30437 ft | 478 kts | 101° |
| 2026-04-24 22:59 | 12.00908 | -67.52743 | 30576 ft | 479 kts | 101° |
| 2026-04-24 22:59 | 12.00282 | -67.50020 | 30783 ft | 481 kts | 101° |
| 2026-04-24 22:59 | 11.98741 | -67.43322 | 31290 ft | 485 kts | 100° |
| 2026-04-24 23:00 | 11.97976 | -67.39997 | 31542 ft | 487 kts | 100° |
| 2026-04-24 23:00 | 11.97249 | -67.36841 | 32173 ft | 482 kts | 100° |
| 2026-04-24 23:00 | 11.96532 | -67.33733 | 32806 ft | 478 kts | 100° |
| 2026-04-24 23:00 | 11.95740 | -67.30300 | 33382 ft | 476 kts | 100° |
| 2026-04-24 23:01 | 11.94977 | -67.26991 | 33942 ft | 473 kts | 100° |
| 2026-04-24 23:01 | 11.94255 | -67.23863 | 34407 ft | 473 kts | 100° |
| 2026-04-24 23:01 | 11.93501 | -67.20593 | 34641 ft | 473 kts | 100° |
| 2026-04-24 23:01 | 11.92782 | -67.17476 | 34856 ft | 472 kts | 100° |
| 2026-04-24 23:02 | 11.92046 | -67.14286 | 34884 ft | 472 kts | 100° |
| 2026-04-24 23:02 | 11.90540 | -67.07768 | 34889 ft | 468 kts | 100° |
| 2026-04-24 23:03 | 11.89074 | -67.01424 | 34883 ft | 468 kts | 100° |
| 2026-04-24 23:03 | 11.87753 | -66.95716 | 34882 ft | 467 kts | 100° |
| 2026-04-24 23:04 | 11.86123 | -66.88674 | 34882 ft | 467 kts | 100° |
| 2026-04-24 23:04 | 11.84619 | -66.82183 | 34882 ft | 467 kts | 100° |
| 2026-04-24 23:05 | 11.83553 | -66.77590 | 34882 ft | 467 kts | 100° |
| 2026-04-24 23:05 | 11.82151 | -66.71551 | 34882 ft | 467 kts | 100° |
| 2026-04-24 23:06 | 11.80822 | -66.65828 | 34882 ft | 467 kts | 100° |
| 2026-04-24 23:06 | 11.79942 | -66.62043 | 34882 ft | 467 kts | 100° |
| 2026-04-24 23:07 | 11.78536 | -66.55998 | 34882 ft | 467 kts | 100° |
| 2026-04-24 23:07 | 11.77029 | -66.49527 | 34882 ft | 467 kts | 100° |
| 2026-04-24 23:08 | 11.75637 | -66.43553 | 34882 ft | 467 kts | 100° |
| 2026-04-24 23:08 | 11.74130 | -66.37096 | 34907 ft | 466 kts | 100° |
| 2026-04-24 23:09 | 11.72622 | -66.30636 | 34911 ft | 467 kts | 101° |
| 2026-04-24 23:09 | 11.71130 | -66.24253 | 34911 ft | 467 kts | 101° |
| 2026-04-24 23:10 | 11.69617 | -66.17780 | 34911 ft | 467 kts | 101° |
| 2026-04-24 23:10 | 11.68084 | -66.11231 | 34911 ft | 467 kts | 101° |
| 2026-04-24 23:11 | 11.66577 | -66.04804 | 34911 ft | 467 kts | 101° |
| 2026-04-24 23:11 | 11.65074 | -65.98395 | 34911 ft | 467 kts | 101° |
| 2026-04-24 23:12 | 11.63557 | -65.91931 | 34911 ft | 467 kts | 101° |
| 2026-04-24 23:12 | 11.62045 | -65.85495 | 34911 ft | 467 kts | 101° |
| 2026-04-24 23:13 | 11.60868 | -65.80490 | 34911 ft | 467 kts | 101° |